sensor_id;sensor_type;location;lat;lon;timestamp;temperature;humidity
20560;DHT22;10438;51.454;6.718;2023-09-07T00:00:39;20.50;99.90
20560;DHT22;10438;51.454;6.718;2023-09-07T00:03:05;20.50;99.90
20560;DHT22;10438;51.454;6.718;2023-09-07T00:05:31;20.50;99.90
20560;DHT22;10438;51.454;6.718;2023-09-07T00:07:56;20.50;99.90
20560;DHT22;10438;51.454;6.718;2023-09-07T00:10:22;20.40;99.90
20560;DHT22;10438;51.454;6.718;2023-09-07T00:12:48;20.40;99.90
20560;DHT22;10438;51.454;6.718;2023-09-07T00:15:14;20.30;99.90
20560;DHT22;10438;51.454;6.718;2023-09-07T00:17:39;20.30;99.90
20560;DHT22;10438;51.454;6.718;2023-09-07T00:20:05;20.20;99.90
20560;DHT22;10438;51.454;6.718;2023-09-07T00:22:36;20.20;99.90
20560;DHT22;10438;51.454;6.718;2023-09-07T00:25:02;20.20;99.90
20560;DHT22;10438;51.454;6.718;2023-09-07T00:27:29;20.20;99.90
20560;DHT22;10438;51.454;6.718;2023-09-07T00:29:55;20.10;99.90
20560;DHT22;10438;51.454;6.718;2023-09-07T00:32:20;20.10;99.90
20560;DHT22;10438;51.454;6.718;2023-09-07T00:34:46;20.10;99.90
20560;DHT22;10438;51.454;6.718;2023-09-07T00:37:12;20.10;99.90
20560;DHT22;10438;51.454;6.718;2023-09-07T00:39:37;20.10;99.90
20560;DHT22;10438;51.454;6.718;2023-09-07T00:42:03;20.10;99.90
20560;DHT22;10438;51.454;6.718;2023-09-07T00:44:29;20.10;99.90
20560;DHT22;10438;51.454;6.718;2023-09-07T00:46:56;20.10;99.90
20560;DHT22;10438;51.454;6.718;2023-09-07T00:49:22;20.10;99.90
20560;DHT22;10438;51.454;6.718;2023-09-07T00:51:48;20.10;99.90
20560;DHT22;10438;51.454;6.718;2023-09-07T00:54:14;20.10;99.90
20560;DHT22;10438;51.454;6.718;2023-09-07T00:56:40;20.00;99.90
20560;DHT22;10438;51.454;6.718;2023-09-07T00:59:07;20.10;99.90
20560;DHT22;10438;51.454;6.718;2023-09-07T01:01:34;20.00;99.90
20560;DHT22;10438;51.454;6.718;2023-09-07T01:04:00;20.00;99.90
20560;DHT22;10438;51.454;6.718;2023-09-07T01:06:30;19.90;99.90
20560;DHT22;10438;51.454;6.718;2023-09-07T01:08:57;19.90;99.90
20560;DHT22;10438;51.454;6.718;2023-09-07T01:11:25;19.80;99.90
20560;DHT22;10438;51.454;6.718;2023-09-07T01:13:52;19.80;99.90
20560;DHT22;10438;51.454;6.718;2023-09-07T01:16:19;19.80;99.90
20560;DHT22;10438;51.454;6.718;2023-09-07T01:18:46;19.70;99.90
20560;DHT22;10438;51.454;6.718;2023-09-07T01:21:13;19.60;99.90
20560;DHT22;10438;51.454;6.718;2023-09-07T01:23:41;19.60;99.90
20560;DHT22;10438;51.454;6.718;2023-09-07T01:26:08;19.50;99.90
20560;DHT22;10438;51.454;6.718;2023-09-07T01:28:35;19.50;99.90
20560;DHT22;10438;51.454;6.718;2023-09-07T01:31:02;19.40;99.90
20560;DHT22;10438;51.454;6.718;2023-09-07T01:33:27;19.30;99.90
20560;DHT22;10438;51.454;6.718;2023-09-07T01:35:53;19.30;99.90
20560;DHT22;10438;51.454;6.718;2023-09-07T01:38:18;19.30;99.90
20560;DHT22;10438;51.454;6.718;2023-09-07T01:40:44;19.20;99.90
20560;DHT22;10438;51.454;6.718;2023-09-07T01:43:10;19.20;99.90
20560;DHT22;10438;51.454;6.718;2023-09-07T01:45:35;19.20;99.90
20560;DHT22;10438;51.454;6.718;2023-09-07T01:48:01;19.10;99.90
20560;DHT22;10438;51.454;6.718;2023-09-07T01:50:27;19.10;99.90
20560;DHT22;10438;51.454;6.718;2023-09-07T01:52:52;19.10;99.90
20560;DHT22;10438;51.454;6.718;2023-09-07T01:55:18;19.00;99.90
20560;DHT22;10438;51.454;6.718;2023-09-07T01:57:44;18.90;99.90
20560;DHT22;10438;51.454;6.718;2023-09-07T02:00:10;18.90;99.90
20560;DHT22;10438;51.454;6.718;2023-09-07T02:02:36;18.80;99.90
20560;DHT22;10438;51.454;6.718;2023-09-07T02:05:02;18.80;99.90
20560;DHT22;10438;51.454;6.718;2023-09-07T02:07:27;18.70;99.90
20560;DHT22;10438;51.454;6.718;2023-09-07T02:09:53;18.70;99.90
20560;DHT22;10438;51.454;6.718;2023-09-07T02:12:18;18.70;99.90
20560;DHT22;10438;51.454;6.718;2023-09-07T02:14:44;18.70;99.90
20560;DHT22;10438;51.454;6.718;2023-09-07T02:17:09;18.60;99.90
20560;DHT22;10438;51.454;6.718;2023-09-07T02:19:35;18.60;99.90
20560;DHT22;10438;51.454;6.718;2023-09-07T02:22:01;18.60;99.90
20560;DHT22;10438;51.454;6.718;2023-09-07T02:24:26;18.60;99.90
20560;DHT22;10438;51.454;6.718;2023-09-07T02:26:52;18.50;99.90
20560;DHT22;10438;51.454;6.718;2023-09-07T02:29:17;18.50;99.90
20560;DHT22;10438;51.454;6.718;2023-09-07T02:31:43;18.50;99.90
20560;DHT22;10438;51.454;6.718;2023-09-07T02:34:08;18.50;99.90
20560;DHT22;10438;51.454;6.718;2023-09-07T02:36:34;18.50;99.90
20560;DHT22;10438;51.454;6.718;2023-09-07T02:39:02;18.50;99.90
20560;DHT22;10438;51.454;6.718;2023-09-07T02:41:30;18.40;99.90
20560;DHT22;10438;51.454;6.718;2023-09-07T02:43:56;18.40;99.90
20560;DHT22;10438;51.454;6.718;2023-09-07T02:46:21;18.40;99.90
20560;DHT22;10438;51.454;6.718;2023-09-07T02:48:47;18.40;99.90
20560;DHT22;10438;51.454;6.718;2023-09-07T02:51:12;18.30;99.90
20560;DHT22;10438;51.454;6.718;2023-09-07T02:53:39;18.30;99.90
20560;DHT22;10438;51.454;6.718;2023-09-07T02:56:04;18.20;99.90
20560;DHT22;10438;51.454;6.718;2023-09-07T02:58:30;18.20;99.90
20560;DHT22;10438;51.454;6.718;2023-09-07T03:00:56;18.10;99.90
20560;DHT22;10438;51.454;6.718;2023-09-07T03:03:21;18.00;99.90
20560;DHT22;10438;51.454;6.718;2023-09-07T03:05:47;18.00;99.90
20560;DHT22;10438;51.454;6.718;2023-09-07T03:08:12;18.00;99.90
20560;DHT22;10438;51.454;6.718;2023-09-07T03:10:39;17.90;99.90
20560;DHT22;10438;51.454;6.718;2023-09-07T03:13:05;17.90;99.90
20560;DHT22;10438;51.454;6.718;2023-09-07T03:15:31;17.90;99.90
20560;DHT22;10438;51.454;6.718;2023-09-07T03:17:57;17.80;99.90
20560;DHT22;10438;51.454;6.718;2023-09-07T03:20:22;17.80;99.90
20560;DHT22;10438;51.454;6.718;2023-09-07T03:22:48;17.70;99.90
20560;DHT22;10438;51.454;6.718;2023-09-07T03:25:14;17.70;99.90
20560;DHT22;10438;51.454;6.718;2023-09-07T03:27:39;17.60;99.90
20560;DHT22;10438;51.454;6.718;2023-09-07T03:30:06;17.60;99.90
20560;DHT22;10438;51.454;6.718;2023-09-07T03:32:33;17.60;99.90
20560;DHT22;10438;51.454;6.718;2023-09-07T03:35:00;17.60;99.90
20560;DHT22;10438;51.454;6.718;2023-09-07T03:37:28;17.70;99.90
20560;DHT22;10438;51.454;6.718;2023-09-07T03:39:55;17.70;99.90
20560;DHT22;10438;51.454;6.718;2023-09-07T03:42:21;17.70;99.90
20560;DHT22;10438;51.454;6.718;2023-09-07T03:44:47;17.80;99.90
20560;DHT22;10438;51.454;6.718;2023-09-07T03:47:14;17.80;99.90
20560;DHT22;10438;51.454;6.718;2023-09-07T03:49:39;17.80;99.90
20560;DHT22;10438;51.454;6.718;2023-09-07T03:52:05;17.80;99.90
20560;DHT22;10438;51.454;6.718;2023-09-07T03:54:31;17.90;99.90
20560;DHT22;10438;51.454;6.718;2023-09-07T03:56:57;17.90;99.90
20560;DHT22;10438;51.454;6.718;2023-09-07T03:59:23;17.90;99.90
20560;DHT22;10438;51.454;6.718;2023-09-07T04:01:48;17.90;99.90
20560;DHT22;10438;51.454;6.718;2023-09-07T04:04:14;17.90;99.90
20560;DHT22;10438;51.454;6.718;2023-09-07T04:06:40;18.00;99.90
20560;DHT22;10438;51.454;6.718;2023-09-07T04:09:05;18.00;99.90
20560;DHT22;10438;51.454;6.718;2023-09-07T04:11:31;18.00;99.90
20560;DHT22;10438;51.454;6.718;2023-09-07T04:13:57;18.00;99.90
20560;DHT22;10438;51.454;6.718;2023-09-07T04:16:23;18.00;99.90
20560;DHT22;10438;51.454;6.718;2023-09-07T04:18:48;17.90;99.90
20560;DHT22;10438;51.454;6.718;2023-09-07T04:21:14;17.90;99.90
20560;DHT22;10438;51.454;6.718;2023-09-07T04:23:39;17.90;99.90
20560;DHT22;10438;51.454;6.718;2023-09-07T04:26:09;17.90;99.90
20560;DHT22;10438;51.454;6.718;2023-09-07T04:28:35;17.80;99.90
20560;DHT22;10438;51.454;6.718;2023-09-07T04:31:02;17.90;99.90
20560;DHT22;10438;51.454;6.718;2023-09-07T04:33:30;17.90;99.90
20560;DHT22;10438;51.454;6.718;2023-09-07T04:35:56;17.90;99.90
20560;DHT22;10438;51.454;6.718;2023-09-07T04:38:21;17.90;99.90
20560;DHT22;10438;51.454;6.718;2023-09-07T04:40:47;17.90;99.90
20560;DHT22;10438;51.454;6.718;2023-09-07T04:43:13;17.90;99.90
20560;DHT22;10438;51.454;6.718;2023-09-07T04:45:46;17.90;99.90
20560;DHT22;10438;51.454;6.718;2023-09-07T04:48:12;17.90;99.90
20560;DHT22;10438;51.454;6.718;2023-09-07T04:50:37;17.90;99.90
20560;DHT22;10438;51.454;6.718;2023-09-07T04:53:03;17.80;99.90
20560;DHT22;10438;51.454;6.718;2023-09-07T04:55:28;17.80;99.90
20560;DHT22;10438;51.454;6.718;2023-09-07T04:57:54;17.80;99.90
20560;DHT22;10438;51.454;6.718;2023-09-07T05:00:19;17.80;99.90
20560;DHT22;10438;51.454;6.718;2023-09-07T05:02:45;17.80;99.90
20560;DHT22;10438;51.454;6.718;2023-09-07T05:05:12;17.80;99.90
20560;DHT22;10438;51.454;6.718;2023-09-07T05:07:37;17.80;99.90
20560;DHT22;10438;51.454;6.718;2023-09-07T05:10:03;17.80;99.90
20560;DHT22;10438;51.454;6.718;2023-09-07T05:12:29;17.80;99.90
20560;DHT22;10438;51.454;6.718;2023-09-07T05:14:54;17.80;99.90
20560;DHT22;10438;51.454;6.718;2023-09-07T05:17:20;17.80;99.90
20560;DHT22;10438;51.454;6.718;2023-09-07T05:19:46;17.80;99.90
20560;DHT22;10438;51.454;6.718;2023-09-07T05:22:11;17.90;99.90
20560;DHT22;10438;51.454;6.718;2023-09-07T05:24:38;17.90;99.90
20560;DHT22;10438;51.454;6.718;2023-09-07T05:27:04;18.00;99.90
20560;DHT22;10438;51.454;6.718;2023-09-07T05:29:30;18.00;99.90
20560;DHT22;10438;51.454;6.718;2023-09-07T05:31:56;18.00;99.90
20560;DHT22;10438;51.454;6.718;2023-09-07T05:34:21;18.00;99.90
20560;DHT22;10438;51.454;6.718;2023-09-07T05:36:48;18.10;99.90
20560;DHT22;10438;51.454;6.718;2023-09-07T05:39:13;18.10;99.90
20560;DHT22;10438;51.454;6.718;2023-09-07T05:41:39;18.10;99.90
20560;DHT22;10438;51.454;6.718;2023-09-07T05:44:05;18.20;99.90
20560;DHT22;10438;51.454;6.718;2023-09-07T05:46:30;18.20;99.90
20560;DHT22;10438;51.454;6.718;2023-09-07T05:48:56;18.20;99.90
20560;DHT22;10438;51.454;6.718;2023-09-07T05:51:21;18.20;99.90
20560;DHT22;10438;51.454;6.718;2023-09-07T05:53:47;18.20;99.90
20560;DHT22;10438;51.454;6.718;2023-09-07T05:56:12;18.20;99.90
20560;DHT22;10438;51.454;6.718;2023-09-07T05:58:38;18.30;99.90
20560;DHT22;10438;51.454;6.718;2023-09-07T06:01:03;18.30;99.90
20560;DHT22;10438;51.454;6.718;2023-09-07T06:03:30;18.40;99.90
20560;DHT22;10438;51.454;6.718;2023-09-07T06:05:57;18.50;99.90
20560;DHT22;10438;51.454;6.718;2023-09-07T06:08:23;18.50;99.90
20560;DHT22;10438;51.454;6.718;2023-09-07T06:10:48;18.60;99.90
20560;DHT22;10438;51.454;6.718;2023-09-07T06:13:14;18.60;99.90
20560;DHT22;10438;51.454;6.718;2023-09-07T06:15:40;18.70;99.90
20560;DHT22;10438;51.454;6.718;2023-09-07T06:18:06;18.70;99.90
20560;DHT22;10438;51.454;6.718;2023-09-07T06:20:31;18.80;99.90
20560;DHT22;10438;51.454;6.718;2023-09-07T06:22:57;18.80;99.90
20560;DHT22;10438;51.454;6.718;2023-09-07T06:25:22;18.90;99.90
20560;DHT22;10438;51.454;6.718;2023-09-07T06:27:50;18.90;99.90
20560;DHT22;10438;51.454;6.718;2023-09-07T06:30:17;19.00;99.90
20560;DHT22;10438;51.454;6.718;2023-09-07T06:32:43;19.10;99.90
20560;DHT22;10438;51.454;6.718;2023-09-07T06:35:09;19.10;99.90
20560;DHT22;10438;51.454;6.718;2023-09-07T06:37:35;19.10;99.90
20560;DHT22;10438;51.454;6.718;2023-09-07T06:40:02;19.20;99.90
20560;DHT22;10438;51.454;6.718;2023-09-07T06:42:29;19.20;99.90
20560;DHT22;10438;51.454;6.718;2023-09-07T06:44:56;19.20;99.90
20560;DHT22;10438;51.454;6.718;2023-09-07T06:47:21;19.30;99.90
20560;DHT22;10438;51.454;6.718;2023-09-07T06:49:47;19.30;99.90
20560;DHT22;10438;51.454;6.718;2023-09-07T06:52:12;19.40;99.90
20560;DHT22;10438;51.454;6.718;2023-09-07T06:54:38;19.40;99.90
20560;DHT22;10438;51.454;6.718;2023-09-07T06:57:06;19.50;99.90
20560;DHT22;10438;51.454;6.718;2023-09-07T06:59:33;19.60;99.90
20560;DHT22;10438;51.454;6.718;2023-09-07T07:01:59;19.70;99.90
20560;DHT22;10438;51.454;6.718;2023-09-07T07:04:26;19.80;99.90
20560;DHT22;10438;51.454;6.718;2023-09-07T07:06:51;19.90;99.90
20560;DHT22;10438;51.454;6.718;2023-09-07T07:09:17;20.00;99.90
20560;DHT22;10438;51.454;6.718;2023-09-07T07:11:42;20.10;99.90
20560;DHT22;10438;51.454;6.718;2023-09-07T07:14:08;20.20;99.90
20560;DHT22;10438;51.454;6.718;2023-09-07T07:16:34;20.30;99.90
20560;DHT22;10438;51.454;6.718;2023-09-07T07:19:00;20.40;99.90
20560;DHT22;10438;51.454;6.718;2023-09-07T07:21:25;20.40;99.90
20560;DHT22;10438;51.454;6.718;2023-09-07T07:23:51;20.60;99.90
20560;DHT22;10438;51.454;6.718;2023-09-07T07:26:16;20.70;99.90
20560;DHT22;10438;51.454;6.718;2023-09-07T07:28:42;20.80;99.90
20560;DHT22;10438;51.454;6.718;2023-09-07T07:31:09;20.90;99.90
20560;DHT22;10438;51.454;6.718;2023-09-07T07:33:35;21.00;99.90
20560;DHT22;10438;51.454;6.718;2023-09-07T07:36:01;21.20;99.90
20560;DHT22;10438;51.454;6.718;2023-09-07T07:38:26;21.30;99.90
20560;DHT22;10438;51.454;6.718;2023-09-07T07:40:52;21.50;99.90
20560;DHT22;10438;51.454;6.718;2023-09-07T07:43:18;21.60;99.90
20560;DHT22;10438;51.454;6.718;2023-09-07T07:45:44;21.70;99.90
20560;DHT22;10438;51.454;6.718;2023-09-07T07:48:09;22.00;99.90
20560;DHT22;10438;51.454;6.718;2023-09-07T07:50:38;22.10;99.90
20560;DHT22;10438;51.454;6.718;2023-09-07T07:53:05;22.30;99.90
20560;DHT22;10438;51.454;6.718;2023-09-07T07:55:34;22.50;99.90
20560;DHT22;10438;51.454;6.718;2023-09-07T07:58:07;22.50;99.90
20560;DHT22;10438;51.454;6.718;2023-09-07T08:00:36;22.70;99.90
20560;DHT22;10438;51.454;6.718;2023-09-07T08:03:02;22.80;99.90
20560;DHT22;10438;51.454;6.718;2023-09-07T08:05:32;23.00;99.90
20560;DHT22;10438;51.454;6.718;2023-09-07T08:07:58;23.20;99.90
20560;DHT22;10438;51.454;6.718;2023-09-07T08:10:24;23.40;99.90
20560;DHT22;10438;51.454;6.718;2023-09-07T08:12:56;23.90;99.90
20560;DHT22;10438;51.454;6.718;2023-09-07T08:15:22;24.90;99.90
20560;DHT22;10438;51.454;6.718;2023-09-07T08:17:50;25.80;99.90
20560;DHT22;10438;51.454;6.718;2023-09-07T08:20:16;26.50;99.90
20560;DHT22;10438;51.454;6.718;2023-09-07T08:22:41;27.00;99.90
20560;DHT22;10438;51.454;6.718;2023-09-07T08:25:11;26.90;99.90
20560;DHT22;10438;51.454;6.718;2023-09-07T08:27:39;26.80;99.90
20560;DHT22;10438;51.454;6.718;2023-09-07T08:30:07;26.60;99.90
20560;DHT22;10438;51.454;6.718;2023-09-07T08:32:33;26.80;99.90
20560;DHT22;10438;51.454;6.718;2023-09-07T08:34:59;26.80;99.90
20560;DHT22;10438;51.454;6.718;2023-09-07T08:37:26;26.90;99.90
20560;DHT22;10438;51.454;6.718;2023-09-07T08:39:54;26.70;99.90
20560;DHT22;10438;51.454;6.718;2023-09-07T08:42:20;26.80;99.90
20560;DHT22;10438;51.454;6.718;2023-09-07T08:44:46;26.90;98.30
20560;DHT22;10438;51.454;6.718;2023-09-07T08:47:15;26.80;98.20
20560;DHT22;10438;51.454;6.718;2023-09-07T08:49:42;26.90;97.90
20560;DHT22;10438;51.454;6.718;2023-09-07T08:52:09;26.90;93.80
20560;DHT22;10438;51.454;6.718;2023-09-07T08:54:36;27.00;94.70
20560;DHT22;10438;51.454;6.718;2023-09-07T08:57:02;27.10;95.70
20560;DHT22;10438;51.454;6.718;2023-09-07T08:59:31;27.20;95.80
20560;DHT22;10438;51.454;6.718;2023-09-07T09:01:57;27.20;95.80
20560;DHT22;10438;51.454;6.718;2023-09-07T09:04:27;27.30;92.60
20560;DHT22;10438;51.454;6.718;2023-09-07T09:06:53;27.30;93.90
20560;DHT22;10438;51.454;6.718;2023-09-07T09:09:22;27.50;96.40
20560;DHT22;10438;51.454;6.718;2023-09-07T09:11:51;27.60;91.70
20560;DHT22;10438;51.454;6.718;2023-09-07T09:14:17;27.70;91.50
20560;DHT22;10438;51.454;6.718;2023-09-07T09:16:51;27.80;94.20
20560;DHT22;10438;51.454;6.718;2023-09-07T09:19:17;27.80;83.00
20560;DHT22;10438;51.454;6.718;2023-09-07T09:21:44;28.00;88.30
20560;DHT22;10438;51.454;6.718;2023-09-07T09:24:11;28.00;77.60
20560;DHT22;10438;51.454;6.718;2023-09-07T09:26:38;27.90;78.10
20560;DHT22;10438;51.454;6.718;2023-09-07T09:29:04;28.00;80.50
20560;DHT22;10438;51.454;6.718;2023-09-07T09:31:30;28.20;85.00
20560;DHT22;10438;51.454;6.718;2023-09-07T09:33:56;28.30;74.70
20560;DHT22;10438;51.454;6.718;2023-09-07T09:36:22;28.50;90.30
20560;DHT22;10438;51.454;6.718;2023-09-07T09:38:49;28.40;76.00
20560;DHT22;10438;51.454;6.718;2023-09-07T09:41:16;28.50;85.90
20560;DHT22;10438;51.454;6.718;2023-09-07T09:43:43;28.60;72.50
20560;DHT22;10438;51.454;6.718;2023-09-07T09:46:12;28.70;64.30
20560;DHT22;10438;51.454;6.718;2023-09-07T09:48:38;28.70;57.40
20560;DHT22;10438;51.454;6.718;2023-09-07T09:51:05;28.80;72.40
20560;DHT22;10438;51.454;6.718;2023-09-07T09:53:32;28.90;70.20
20560;DHT22;10438;51.454;6.718;2023-09-07T09:55:58;29.00;67.40
20560;DHT22;10438;51.454;6.718;2023-09-07T09:58:23;29.30;77.60
20560;DHT22;10438;51.454;6.718;2023-09-07T10:00:58;29.40;61.60
20560;DHT22;10438;51.454;6.718;2023-09-07T10:03:29;29.70;52.80
20560;DHT22;10438;51.454;6.718;2023-09-07T10:06:07;29.90;60.30
20560;DHT22;10438;51.454;6.718;2023-09-07T10:08:33;29.90;46.40
20560;DHT22;10438;51.454;6.718;2023-09-07T10:10:59;30.00;48.90
20560;DHT22;10438;51.454;6.718;2023-09-07T10:13:30;30.10;47.60
20560;DHT22;10438;51.454;6.718;2023-09-07T10:16:06;30.40;55.50
20560;DHT22;10438;51.454;6.718;2023-09-07T10:18:39;30.30;36.10
20560;DHT22;10438;51.454;6.718;2023-09-07T10:21:05;30.20;46.10
20560;DHT22;10438;51.454;6.718;2023-09-07T10:23:39;30.30;34.90
20560;DHT22;10438;51.454;6.718;2023-09-07T10:26:14;30.80;45.00
20560;DHT22;10438;51.454;6.718;2023-09-07T10:28:41;31.10;40.20
20560;DHT22;10438;51.454;6.718;2023-09-07T10:31:17;31.70;32.90
20560;DHT22;10438;51.454;6.718;2023-09-07T10:33:43;32.10;22.00
20560;DHT22;10438;51.454;6.718;2023-09-07T10:36:20;32.00;22.20
20560;DHT22;10438;51.454;6.718;2023-09-07T10:38:46;32.40;21.40
20560;DHT22;10438;51.454;6.718;2023-09-07T10:41:12;32.50;21.80
20560;DHT22;10438;51.454;6.718;2023-09-07T10:43:47;32.80;18.10
20560;DHT22;10438;51.454;6.718;2023-09-07T10:46:13;32.90;19.30
20560;DHT22;10438;51.454;6.718;2023-09-07T10:48:38;33.00;13.40
20560;DHT22;10438;51.454;6.718;2023-09-07T10:51:04;33.00;6.50
20560;DHT22;10438;51.454;6.718;2023-09-07T10:53:31;33.10;5.20
20560;DHT22;10438;51.454;6.718;2023-09-07T10:55:59;33.40;5.20
20560;DHT22;10438;51.454;6.718;2023-09-07T10:58:34;33.20;2.40
20560;DHT22;10438;51.454;6.718;2023-09-07T11:01:01;33.20;7.40
20560;DHT22;10438;51.454;6.718;2023-09-07T11:03:30;33.40;1.40
20560;DHT22;10438;51.454;6.718;2023-09-07T11:06:04;32.80;6.50
20560;DHT22;10438;51.454;6.718;2023-09-07T11:08:30;33.10;5.80
20560;DHT22;10438;51.454;6.718;2023-09-07T11:10:56;33.50;8.20
20560;DHT22;10438;51.454;6.718;2023-09-07T11:13:25;33.50;1.70
20560;DHT22;10438;51.454;6.718;2023-09-07T11:15:54;33.70;3.60
20560;DHT22;10438;51.454;6.718;2023-09-07T11:18:21;34.10;1.00
20560;DHT22;10438;51.454;6.718;2023-09-07T11:20:48;34.20;1.00
20560;DHT22;10438;51.454;6.718;2023-09-07T11:23:13;34.40;1.00
20560;DHT22;10438;51.454;6.718;2023-09-07T11:25:39;34.10;1.00
20560;DHT22;10438;51.454;6.718;2023-09-07T11:28:06;34.00;2.40
20560;DHT22;10438;51.454;6.718;2023-09-07T11:30:32;34.30;1.20
20560;DHT22;10438;51.454;6.718;2023-09-07T11:33:06;34.30;1.00
20560;DHT22;10438;51.454;6.718;2023-09-07T11:35:33;34.30;1.00
20560;DHT22;10438;51.454;6.718;2023-09-07T11:38:00;34.30;1.00
20560;DHT22;10438;51.454;6.718;2023-09-07T11:40:26;34.30;1.00
20560;DHT22;10438;51.454;6.718;2023-09-07T11:42:52;34.20;2.20
20560;DHT22;10438;51.454;6.718;2023-09-07T11:45:17;34.00;1.00
20560;DHT22;10438;51.454;6.718;2023-09-07T11:47:44;33.80;1.00
20560;DHT22;10438;51.454;6.718;2023-09-07T11:50:10;33.50;1.00
20560;DHT22;10438;51.454;6.718;2023-09-07T11:52:36;33.70;1.00
20560;DHT22;10438;51.454;6.718;2023-09-07T11:55:01;33.60;1.00
20560;DHT22;10438;51.454;6.718;2023-09-07T11:57:29;34.10;1.00
20560;DHT22;10438;51.454;6.718;2023-09-07T11:59:54;34.50;1.00
20560;DHT22;10438;51.454;6.718;2023-09-07T12:02:20;34.60;1.00
20560;DHT22;10438;51.454;6.718;2023-09-07T12:04:47;34.30;1.00
20560;DHT22;10438;51.454;6.718;2023-09-07T12:07:12;34.50;1.00
20560;DHT22;10438;51.454;6.718;2023-09-07T12:09:38;34.00;1.00
20560;DHT22;10438;51.454;6.718;2023-09-07T12:12:04;34.30;1.00
20560;DHT22;10438;51.454;6.718;2023-09-07T12:14:30;34.20;1.00
20560;DHT22;10438;51.454;6.718;2023-09-07T12:16:56;34.20;1.00
20560;DHT22;10438;51.454;6.718;2023-09-07T12:19:22;34.60;1.00
20560;DHT22;10438;51.454;6.718;2023-09-07T12:21:48;34.40;1.00
20560;DHT22;10438;51.454;6.718;2023-09-07T12:24:13;34.60;1.00
20560;DHT22;10438;51.454;6.718;2023-09-07T12:26:39;34.30;1.00
20560;DHT22;10438;51.454;6.718;2023-09-07T12:29:04;34.60;1.00
20560;DHT22;10438;51.454;6.718;2023-09-07T12:31:30;34.60;1.00
20560;DHT22;10438;51.454;6.718;2023-09-07T12:33:56;34.50;1.00
20560;DHT22;10438;51.454;6.718;2023-09-07T12:36:22;34.60;1.00
20560;DHT22;10438;51.454;6.718;2023-09-07T12:38:48;34.10;1.00
20560;DHT22;10438;51.454;6.718;2023-09-07T12:41:13;34.00;1.00
20560;DHT22;10438;51.454;6.718;2023-09-07T12:43:41;34.10;1.00
20560;DHT22;10438;51.454;6.718;2023-09-07T12:46:08;33.70;1.00
20560;DHT22;10438;51.454;6.718;2023-09-07T12:48:33;33.80;1.00
20560;DHT22;10438;51.454;6.718;2023-09-07T12:50:59;33.60;1.00
20560;DHT22;10438;51.454;6.718;2023-09-07T12:53:24;33.50;1.00
20560;DHT22;10438;51.454;6.718;2023-09-07T12:55:54;33.50;1.00
20560;DHT22;10438;51.454;6.718;2023-09-07T12:58:19;33.50;1.00
20560;DHT22;10438;51.454;6.718;2023-09-07T13:00:45;33.50;1.00
20560;DHT22;10438;51.454;6.718;2023-09-07T13:03:13;33.80;1.00
20560;DHT22;10438;51.454;6.718;2023-09-07T13:05:39;33.90;1.00
20560;DHT22;10438;51.454;6.718;2023-09-07T13:08:05;34.10;1.00
20560;DHT22;10438;51.454;6.718;2023-09-07T13:10:32;34.10;1.00
20560;DHT22;10438;51.454;6.718;2023-09-07T13:12:57;34.00;1.00
20560;DHT22;10438;51.454;6.718;2023-09-07T13:15:23;34.30;1.00
20560;DHT22;10438;51.454;6.718;2023-09-07T13:17:49;34.20;1.00
20560;DHT22;10438;51.454;6.718;2023-09-07T13:20:14;34.70;1.00
20560;DHT22;10438;51.454;6.718;2023-09-07T13:22:41;34.70;1.00
20560;DHT22;10438;51.454;6.718;2023-09-07T13:25:07;34.70;1.00
20560;DHT22;10438;51.454;6.718;2023-09-07T13:27:33;35.00;1.00
20560;DHT22;10438;51.454;6.718;2023-09-07T13:29:58;34.80;1.00
20560;DHT22;10438;51.454;6.718;2023-09-07T13:32:24;34.80;1.00
20560;DHT22;10438;51.454;6.718;2023-09-07T13:34:50;35.00;1.00
20560;DHT22;10438;51.454;6.718;2023-09-07T13:37:15;34.60;1.00
20560;DHT22;10438;51.454;6.718;2023-09-07T13:39:41;35.10;1.00
20560;DHT22;10438;51.454;6.718;2023-09-07T13:42:06;35.50;1.00
20560;DHT22;10438;51.454;6.718;2023-09-07T13:44:32;35.20;1.00
20560;DHT22;10438;51.454;6.718;2023-09-07T13:46:57;35.50;1.00
20560;DHT22;10438;51.454;6.718;2023-09-07T13:49:23;35.50;1.00
20560;DHT22;10438;51.454;6.718;2023-09-07T13:51:49;35.30;1.00
20560;DHT22;10438;51.454;6.718;2023-09-07T13:54:14;35.80;1.00
20560;DHT22;10438;51.454;6.718;2023-09-07T13:56:40;35.60;1.00
20560;DHT22;10438;51.454;6.718;2023-09-07T13:59:07;35.40;1.00
20560;DHT22;10438;51.454;6.718;2023-09-07T14:01:33;35.20;1.00
20560;DHT22;10438;51.454;6.718;2023-09-07T14:03:58;34.60;1.00
20560;DHT22;10438;51.454;6.718;2023-09-07T14:06:24;34.30;1.00
20560;DHT22;10438;51.454;6.718;2023-09-07T14:08:50;33.60;1.00
20560;DHT22;10438;51.454;6.718;2023-09-07T14:11:17;32.70;1.00
20560;DHT22;10438;51.454;6.718;2023-09-07T14:13:42;32.50;1.00
20560;DHT22;10438;51.454;6.718;2023-09-07T14:16:08;32.20;1.00
20560;DHT22;10438;51.454;6.718;2023-09-07T14:18:36;32.00;1.00
20560;DHT22;10438;51.454;6.718;2023-09-07T14:21:02;31.70;1.00
20560;DHT22;10438;51.454;6.718;2023-09-07T14:23:27;31.70;1.00
20560;DHT22;10438;51.454;6.718;2023-09-07T14:25:54;31.40;1.00
20560;DHT22;10438;51.454;6.718;2023-09-07T14:28:19;31.40;1.00
20560;DHT22;10438;51.454;6.718;2023-09-07T14:30:45;31.60;1.00
20560;DHT22;10438;51.454;6.718;2023-09-07T14:33:11;32.20;1.00
20560;DHT22;10438;51.454;6.718;2023-09-07T14:35:36;32.50;1.00
20560;DHT22;10438;51.454;6.718;2023-09-07T14:38:02;32.80;1.00
20560;DHT22;10438;51.454;6.718;2023-09-07T14:40:27;33.10;1.00
20560;DHT22;10438;51.454;6.718;2023-09-07T14:42:53;33.60;1.00
20560;DHT22;10438;51.454;6.718;2023-09-07T14:45:19;34.20;1.00
20560;DHT22;10438;51.454;6.718;2023-09-07T14:47:45;34.80;1.00
20560;DHT22;10438;51.454;6.718;2023-09-07T14:50:11;35.10;1.00
20560;DHT22;10438;51.454;6.718;2023-09-07T14:52:36;35.60;1.00
20560;DHT22;10438;51.454;6.718;2023-09-07T14:55:08;36.20;1.00
20560;DHT22;10438;51.454;6.718;2023-09-07T14:57:34;36.80;1.00
20560;DHT22;10438;51.454;6.718;2023-09-07T15:00:00;36.80;1.00
20560;DHT22;10438;51.454;6.718;2023-09-07T15:02:26;37.40;1.00
20560;DHT22;10438;51.454;6.718;2023-09-07T15:04:51;37.30;1.00
20560;DHT22;10438;51.454;6.718;2023-09-07T15:07:17;37.00;1.00
20560;DHT22;10438;51.454;6.718;2023-09-07T15:09:44;36.90;1.00
20560;DHT22;10438;51.454;6.718;2023-09-07T15:12:09;36.80;1.00
20560;DHT22;10438;51.454;6.718;2023-09-07T15:14:36;36.30;1.00
20560;DHT22;10438;51.454;6.718;2023-09-07T15:17:02;36.40;1.00
20560;DHT22;10438;51.454;6.718;2023-09-07T15:19:27;36.40;1.00
20560;DHT22;10438;51.454;6.718;2023-09-07T15:21:53;35.60;1.00
20560;DHT22;10438;51.454;6.718;2023-09-07T15:24:18;34.80;1.00
20560;DHT22;10438;51.454;6.718;2023-09-07T15:26:45;34.20;1.00
20560;DHT22;10438;51.454;6.718;2023-09-07T15:29:11;33.60;1.00